CW8371 Weather Reports


time (UTC)temp
F
wind
direction
speed
knots
gust
knots
rain 1hr
in
rain 24hr
in
rain mn
in
humidity
%
barometer
mb
20260905223504 66 0 0.0 0.0 0.00 0.01 0.01 88 1012.2
20260905223003 66 0 0.0 0.0 0.00 0.01 0.01 88 1012.0
20260905222504 66 0 0.0 0.0 0.00 0.01 0.01 87 1012.0
20260905222004 66 0 0.0 0.0 0.00 0.01 0.01 88 1012.0
20260905221503 66 0 0.0 0.0 0.00 0.01 0.01 88 1012.0
20260905221004 66 0 0.0 0.0 0.00 0.01 0.01 88 1012.0
20260905220504 66 0 0.0 0.0 0.00 0.01 0.01 88 1011.9
20260905220003 65 0 0.0 0.0 0.00 0.01 0.01 89 1012.0
20260905215503 65 0 0.0 0.0 0.00 0.01 0.01 89 1011.9
20260905215003 65 0 0.0 0.0 0.00 0.01 0.01 89 1011.7
20260905214524 65 0 0.0 0.0 0.01 0.01 0.01 89 1011.7
20260905214003 65 0 0.0 0.0 0.01 0.01 0.01 89 1011.7
20260905213524 65 0 0.0 0.0 0.01 0.01 0.01 89 1011.6
20260905213025 65 121 0.0 1.7 0.01 0.01 0.01 90 1011.5
20260905212503 65 121 0.0 1.7 0.01 0.01 0.01 90 1011.4
20260905212003 65 0 0.0 0.0 0.01 0.01 0.01 90 1011.3
20260905211503 65 121 0.0 0.9 0.01 0.01 0.01 89 1011.3
20260905211003 65 122 0.9 7.8 0.01 0.01 0.01 89 1011.3
20260905210503 65 121 1.7 7.8 0.01 0.01 0.01 88 1011.2
20260905210004 65 111 0.9 7.8 0.01 0.01 0.01 88 1011.2
20260905205503 66 102 0.9 7.8 0.01 0.01 0.01 87 1010.9
20260905205003 66 91 1.7 8.7 0.01 0.01 0.01 86 1011.1
20260905204503 67 87 3.5 11.3 0.00 0.00 0.00 85 1010.9
20260905204003 68 97 5.2 13.9 0.00 0.00 0.00 81 1011.1
20260905203503 69 95 5.2 13.9 0.00 0.00 0.00 79 1011.0
20260905203024 70 88 3.5 11.3 0.00 0.00 0.00 76 1011.0
20260905202503 72 102 2.6 11.3 0.00 0.00 0.00 74 1010.8
20260905202024 72 110 1.7 6.1 0.00 0.00 0.00 74 1010.5
20260905201503 73 112 0.9 7.8 0.00 0.00 0.00 74 1010.5
20260905201024 73 114 0.0 7.8 0.00 0.00 0.00 74 1010.3
20260905200503 73 119 0.9 6.1 0.00 0.00 0.00 73 1010.3
20260905200003 74 119 0.9 6.1 0.00 0.00 0.00 71 1010.1
20260905195503 75 119 0.0 5.2 0.00 0.00 0.00 70 1010.2
20260905195004 76 119 0.0 5.2 0.00 0.00 0.00 70 1010.1
20260905194503 75 0 0.0 5.2 0.00 0.00 0.00 70 1010.0
20260905194003 74 121 0.9 7.0 0.00 0.00 0.00 73 1010.1
20260905193503 73 121 0.9 7.0 0.00 0.00 0.00 73 1010.1
20260905193024 73 116 0.0 3.5 0.00 0.00 0.00 76 1010.1
20260905192503 72 0 0.0 0.0 0.00 0.00 0.00 75 1010.2
20260905192024 72 117 0.0 3.5 0.00 0.00 0.00 77 1010.3
20260905191503 72 117 0.0 3.5 0.00 0.00 0.00 76 1010.3
20260905191003 72 115 0.0 3.5 0.00 0.00 0.00 77 1010.2
20260905190503 72 114 0.9 3.5 0.00 0.00 0.00 76 1010.3
20260905190004 73 113 0.9 5.2 0.00 0.00 0.00 75 1010.3
20260905185503 73 113 1.7 7.0 0.00 0.00 0.00 73 1010.3
20260905185003 74 114 0.9 7.0 0.00 0.00 0.00 72 1010.2
20260905184503 74 123 0.0 3.5 0.00 0.00 0.00 75 1010.3
20260905184003 72 0 0.0 0.0 0.00 0.00 0.00 73 1010.1
20260905183524 72 0 0.0 0.0 0.00 0.00 0.00 73 1010.2
20260905183004 72 0 0.0 0.0 0.00 0.00 0.00 73 1010.4
20260905182524 72 0 0.0 2.6 0.00 0.00 0.00 74 1010.3
20260905182004 72 124 0.0 2.6 0.00 0.00 0.00 73 1010.4
20260905181504 72 125 0.9 6.1 0.00 0.00 0.00 73 1010.2
20260905181004 72 124 1.7 8.7 0.00 0.00 0.00 73 1010.4
20260905180504 73 120 1.7 9.6 0.00 0.00 0.00 71 1010.2
20260905180004 74 96 0.9 9.6 0.00 0.00 0.00 70 1010.2
20260905175504 74 343 0.0 4.3 0.00 0.00 0.00 69 1010.2
20260905175004 75 337 0.9 4.3 0.00 0.00 0.00 66 1010.1
20260905174504 75 335 0.9 5.2 0.00 0.00 0.00 68 1010.3
20260905174004 74 331 0.9 5.2 0.00 0.00 0.00 69 1010.0
20260905173504 73 314 0.0 3.5 0.00 0.00 0.00 73 1010.0
20260905173004 73 314 0.0 3.5 0.00 0.00 0.00 71 1010.1
20260905172504 73 0 0.0 0.0 0.00 0.00 0.00 72 1010.0
20260905172004 73 0 0.0 0.0 0.00 0.00 0.00 71 1010.0
20260905171504 74 314 0.0 3.5 0.00 0.00 0.00 71 1010.0
20260905171004 74 314 0.0 3.5 0.00 0.00 0.00 69 1009.9
20260905170504 74 0 0.0 0.0 0.00 0.00 0.00 71 1009.9
20260905170004 74 313 0.9 5.2 0.00 0.00 0.00 72 1010.0
20260905165504 73 313 0.9 5.2 0.00 0.00 0.00 71 1010.1
20260905165004 73 309 0.0 3.5 0.00 0.00 0.00 72 1010.1
20260905164503 73 305 0.9 4.3 0.00 0.00 0.00 71 1010.2
20260905164003 73 302 0.9 4.3 0.00 0.00 0.00 72 1010.1
20260905163504 73 300 0.9 6.1 0.00 0.00 0.00 73 1010.1
20260905163004 73 300 0.9 6.1 0.00 0.00 0.00 72 1010.1
20260905162503 73 300 0.9 4.3 0.00 0.00 0.00 72 1010.1
20260905162003 73 300 0.0 2.6 0.00 0.00 0.00 72 1010.2
20260905161524 73 300 0.0 0.9 0.00 0.00 0.00 73 1010.2
20260905161004 73 0 0.0 0.0 0.00 0.00 0.00 72 1010.3
20260905160503 73 0 0.0 0.0 0.00 0.00 0.00 71 1010.3
20260905160004 73 0 0.0 0.0 0.00 0.00 0.00 71 1010.2
20260905155504 74 0 0.0 0.0 0.00 0.00 0.00 70 1010.2
20260905155003 73 0 0.0 0.0 0.00 0.00 0.00 73 1010.1
20260905154503 72 300 0.0 1.7 0.00 0.00 0.00 74 1010.1
20260905154003 73 300 0.0 2.6 0.00 0.00 0.00 74 1010.4
20260905153503 73 300 0.0 2.6 0.00 0.00 0.00 73 1010.3
20260905153003 74 300 0.0 1.7 0.00 0.00 0.00 73 1010.2
20260905152503 73 0 0.0 0.0 0.00 0.00 0.00 77 1010.3
20260905152003 73 300 0.0 2.6 0.00 0.00 0.00 74 1010.2
20260905151503 73 300 0.0 2.6 0.00 0.00 0.00 75 1010.4
20260905151003 72 0 0.0 0.0 0.00 0.00 0.00 75 1010.4
20260905150504 73 0 0.0 0.0 0.00 0.00 0.00 75 1010.4
20260905150004 72 296 0.9 4.3 0.00 0.00 0.00 75 1010.3
20260905145504 72 296 0.9 4.3 0.00 0.00 0.00 78 1010.3
20260905145025 71 0 0.0 0.0 0.00 0.00 0.00 81 1010.4
20260905144504 70 0 0.0 0.0 0.00 0.00 0.00 81 1010.4
20260905144003 70 0 0.0 0.0 0.00 0.00 0.00 82 1010.5
20260905143504 70 0 0.0 0.0 0.00 0.00 0.00 83 1010.4
20260905143004 69 0 0.0 0.0 0.00 0.00 0.00 82 1010.4
20260905142504 69 0 0.0 0.0 0.00 0.00 0.00 82 1010.4
20260905142004 69 0 0.0 0.0 0.00 0.00 0.00 82 1010.4
20260905141503 69 0 0.0 0.0 0.00 0.00 0.00 82 1010.4
20260905141004 69 0 0.0 0.0 0.00 0.00 0.00 82 1010.5
20260905140504 69 0 0.0 0.0 0.00 0.00 0.00 83 1010.5
20260905140005 69 0 0.0 0.0 0.00 0.00 0.00 83 1010.5
20260905135525 68 0 0.0 0.0 0.00 0.00 0.00 82 1010.4
20260905135004 68 0 0.0 0.0 0.00 0.00 0.00 83 1010.3
20260905134504 68 292 0.0 2.6 0.00 0.00 0.00 83 1010.3
20260905134025 68 292 0.0 2.6 0.00 0.00 0.00 82 1010.3
20260905133504 69 292 0.0 1.7 0.00 0.00 0.00 84 1010.2
20260905133004 69 0 0.0 0.0 0.00 0.00 0.00 85 1010.1
20260905132504 68 0 0.0 0.0 0.00 0.00 0.00 85 1010.2
20260905132025 68 0 0.0 0.0 0.00 0.00 0.00 85 1010.1
20260905131504 68 292 0.0 0.9 0.00 0.00 0.00 86 1010.1
20260905131004 68 292 0.0 0.9 0.00 0.00 0.00 85 1009.9
20260905130505 67 0 0.0 0.0 0.00 0.00 0.00 87 1009.9
20260905130004 67 0 0.0 0.0 0.00 0.00 0.00 87 1009.9
20260905125504 67 0 0.0 0.0 0.00 0.00 0.00 88 1010.0
20260905125025 67 0 0.0 0.0 0.00 0.00 0.00 89 1010.0
20260905124525 66 0 0.0 0.0 0.00 0.00 0.00 89 1009.9
20260905124004 66 0 0.0 0.0 0.00 0.00 0.00 90 1009.8
20260905123504 66 0 0.0 0.0 0.00 0.00 0.00 90 1009.7
20260905123004 65 0 0.0 0.0 0.00 0.00 0.00 91 1009.7
20260905122504 65 0 0.0 0.0 0.00 0.00 0.00 91 1009.6
20260905122004 64 0 0.0 0.0 0.00 0.00 0.00 92 1009.6
20260905121525 64 0 0.0 0.0 0.00 0.00 0.00 92 1009.5
20260905121004 64 0 0.0 0.0 0.00 0.00 0.00 93 1009.4
20260905120504 64 0 0.0 0.0 0.00 0.00 0.00 94 1009.5
20260905120004 63 0 0.0 0.0 0.00 0.00 0.00 95 1009.5
20260905115504 63 0 0.0 0.0 0.00 0.00 0.00 96 1009.5
20260905115004 62 0 0.0 0.0 0.00 0.00 0.00 97 1009.6
20260905114504 62 0 0.0 0.0 0.00 0.00 0.00 97 1009.5
20260905114004 61 0 0.0 0.0 0.00 0.00 0.00 97 1009.2
20260905113503 61 0 0.0 0.0 0.00 0.00 0.00 97 1009.4
20260905113004 61 0 0.0 0.0 0.00 0.00 0.00 97 1009.3
20260905112525 61 0 0.0 0.0 0.00 0.00 0.00 97 1009.4
20260905112025 60 0 0.0 0.0 0.00 0.00 0.00 97 1009.2
20260905111504 60 0 0.0 0.0 0.00 0.00 0.00 97 1009.4
20260905111024 60 0 0.0 0.0 0.00 0.00 0.00 97 1009.2
20260905110504 60 0 0.0 0.0 0.00 0.00 0.00 97 1009.2
20260905110004 60 0 0.0 0.0 0.00 0.00 0.00 97 1009.2
20260905105504 60 0 0.0 0.0 0.00 0.00 0.00 97 1009.1
20260905105004 60 0 0.0 0.0 0.00 0.00 0.00 97 1009.2
20260905104504 60 0 0.0 0.0 0.00 0.00 0.00 97 1009.1
20260905104004 60 0 0.0 0.0 0.00 0.00 0.00 97 1009.0
20260905103504 59 0 0.0 0.0 0.00 0.00 0.00 97 1009.0
20260905103004 59 0 0.0 0.0 0.00 0.00 0.00 96 1009.0
20260905102504 59 0 0.0 0.0 0.00 0.00 0.00 96 1009.0
20260905102003 60 0 0.0 0.0 0.00 0.00 0.00 96 1009.0
20260905101504 60 0 0.0 0.0 0.00 0.00 0.00 96 1009.0
20260905101024 60 0 0.0 0.0 0.00 0.00 0.00 96 1009.0
20260905100503 60 0 0.0 0.0 0.00 0.00 0.00 96 1009.0
20260905100003 60 0 0.0 0.0 0.00 0.00 0.00 96 1008.9
20260905095503 60 0 0.0 0.0 0.00 0.00 0.00 96 1009.0
20260905095003 60 0 0.0 0.0 0.00 0.00 0.00 96 1009.0
20260905094503 59 0 0.0 0.0 0.00 0.00 0.00 96 1008.8
20260905094003 59 0 0.0 0.0 0.00 0.00 0.00 96 1008.7
20260905093503 60 0 0.0 0.0 0.00 0.00 0.00 96 1008.6
20260905093003 59 0 0.0 0.0 0.00 0.00 0.00 96 1008.9
20260905092504 59 0 0.0 0.0 0.00 0.00 0.00 96 1008.8
20260905092024 59 0 0.0 0.0 0.00 0.00 0.00 96 1008.6
20260905091524 59 0 0.0 0.0 0.00 0.00 0.00 96 1008.6
20260905091003 59 0 0.0 0.0 0.00 0.00 0.00 96 1008.6
20260905090524 59 0 0.0 0.0 0.00 0.00 0.00 96 1008.5
20260905090003 59 0 0.0 0.0 0.00 0.00 0.00 96 1008.5
20260905085503 59 0 0.0 0.0 0.00 0.00 0.00 96 1008.5
20260905085003 59 0 0.0 0.0 0.00 0.00 0.00 95 1008.4
20260905084503 59 0 0.0 0.0 0.00 0.00 0.00 95 1008.4
20260905084003 59 0 0.0 0.0 0.00 0.00 0.00 95 1008.4
20260905083503 60 0 0.0 0.0 0.00 0.00 0.00 95 1008.3
20260905083025 60 0 0.0 0.0 0.00 0.00 0.00 95 1008.4
20260905082503 60 0 0.0 0.0 0.00 0.00 0.00 95 1008.4
20260905082003 60 0 0.0 0.0 0.00 0.00 0.00 95 1008.4
20260905081503 60 0 0.0 0.0 0.00 0.00 0.00 95 1008.4
20260905081003 60 0 0.0 0.0 0.00 0.00 0.00 95 1008.4
20260905080503 60 0 0.0 0.0 0.00 0.00 0.00 95 1008.5
20260905080003 60 0 0.0 0.0 0.00 0.00 0.00 95 1008.5
20260905075503 60 0 0.0 0.0 0.00 0.00 0.00 95 1008.5
20260905075003 60 0 0.0 0.0 0.00 0.00 0.00 95 1008.5
20260905074503 60 0 0.0 0.0 0.00 0.00 0.00 94 1008.5
20260905074003 60 0 0.0 0.0 0.00 0.00 0.00 94 1008.6
20260905073503 60 0 0.0 0.0 0.00 0.00 0.00 94 1008.6
20260905073003 60 0 0.0 0.0 0.00 0.00 0.00 94 1008.6
20260905072503 60 0 0.0 0.0 0.00 0.00 0.00 94 1008.6
20260905072003 60 0 0.0 0.0 0.00 0.00 0.00 94 1008.6
20260905071524 60 0 0.0 0.0 0.00 0.00 0.00 94 1008.7
20260905071024 60 0 0.0 0.0 0.00 0.00 0.00 94 1008.7
20260905070524 60 0 0.0 0.0 0.00 0.00 0.00 94 1008.7
20260905070004 61 0 0.0 0.0 0.00 0.00 0.00 93 1008.7
20260905065503 61 0 0.0 0.0 0.00 0.00 0.00 93 1008.7
20260905065003 61 0 0.0 0.0 0.00 0.00 0.00 93 1008.9
20260905064504 61 0 0.0 0.0 0.00 0.00 0.00 93 1008.9
20260905064003 61 0 0.0 0.0 0.00 0.00 0.00 93 1008.9
20260905063503 61 0 0.0 0.0 0.00 0.00 0.00 93 1008.9
20260905063003 61 0 0.0 0.0 0.00 0.00 0.00 92 1008.9
20260905062503 61 0 0.0 0.0 0.00 0.00 0.00 92 1009.0
20260905062003 61 0 0.0 0.0 0.00 0.00 0.00 92 1009.0
20260905061503 61 0 0.0 0.0 0.00 0.00 0.00 93 1009.0
20260905061003 61 0 0.0 0.0 0.00 0.00 0.00 93 1009.1
20260905060503 61 0 0.0 0.0 0.00 0.00 0.00 93 1009.1
20260905060003 61 0 0.0 0.0 0.00 0.00 0.00 93 1009.2
20260905055503 61 0 0.0 0.0 0.00 0.00 0.00 93 1009.2
20260905055024 61 0 0.0 0.0 0.00 0.00 0.00 93 1009.2
20260905054503 61 0 0.0 0.0 0.00 0.00 0.00 93 1009.2
20260905054003 61 0 0.0 0.0 0.00 0.00 0.00 93 1009.3
20260905053503 61 0 0.0 0.0 0.00 0.00 0.00 93 1009.2
20260905053003 61 0 0.0 0.0 0.00 0.00 0.00 93 1009.3
20260905052503 61 0 0.0 0.0 0.00 0.00 0.00 93 1009.2
20260905052003 61 0 0.0 0.0 0.00 0.00 0.00 93 1009.3
20260905051525 61 0 0.0 0.0 0.00 0.00 0.00 92 1009.3
20260905051003 61 0 0.0 0.0 0.00 0.00 0.00 92 1009.3
20260905050503 62 0 0.0 0.0 0.00 0.00 0.00 92 1009.4
20260905050003 62 0 0.0 0.0 0.00 0.00 0.00 92 1009.5
20260905045504 62 0 0.0 0.0 0.00 0.00 0.00 92 1009.5
20260905045003 62 0 0.0 0.0 0.00 0.00 0.00 92 1009.4
20260905044525 62 0 0.0 0.0 0.00 0.00 0.00 92 1009.3
20260905044003 62 0 0.0 0.0 0.00 0.00 0.00 91 1009.2
20260905043503 62 0 0.0 0.0 0.00 0.00 0.00 92 1009.1
20260905043025 62 0 0.0 0.0 0.00 0.00 0.00 91 1009.1
20260905042524 63 0 0.0 0.0 0.00 0.00 0.00 91 1009.1
20260905042004 63 0 0.0 0.0 0.00 0.00 0.00 90 1009.1
20260905041504 63 0 0.0 0.0 0.00 0.00 0.00 90 1009.2
20260905041003 63 0 0.0 0.0 0.00 0.00 0.00 90 1009.4
20260905040504 63 0 0.0 0.0 0.00 0.00 0.00 90 1009.3
20260905040004 63 0 0.0 0.0 0.00 0.00 0.00 90 1009.3
20260905035504 63 0 0.0 0.0 0.00 0.00 0.00 89 1009.2
20260905035004 64 0 0.0 0.0 0.00 0.00 0.00 89 1009.1
20260905034503 64 0 0.0 0.0 0.00 0.00 0.00 88 1009.1
20260905034003 64 0 0.0 0.0 0.00 0.00 0.00 88 1009.2
20260905033503 64 0 0.0 0.0 0.00 0.00 0.00 88 1009.1
20260905033003 64 0 0.0 0.0 0.00 0.00 0.00 87 1009.2
20260905032503 64 0 0.0 0.0 0.00 0.00 0.00 87 1009.3
20260905032024 64 0 0.0 0.0 0.00 0.00 0.00 87 1009.3
20260905031524 65 0 0.0 0.0 0.00 0.00 0.00 86 1009.3
20260905031003 65 0 0.0 0.0 0.00 0.00 0.00 86 1009.4
20260905030503 65 0 0.0 0.0 0.00 0.00 0.00 84 1009.3
20260905030024 65 0 0.0 0.0 0.00 0.00 0.00 85 1009.4
20260905025503 65 0 0.0 0.0 0.00 0.00 0.00 84 1009.4
20260905025003 65 0 0.0 0.0 0.00 0.00 0.00 84 1009.4
20260905024524 65 0 0.0 0.0 0.00 0.00 0.00 84 1009.4
20260905024003 65 0 0.0 0.0 0.00 0.00 0.00 84 1009.4
20260905023503 65 0 0.0 0.0 0.00 0.00 0.00 84 1009.5
20260905023003 66 0 0.0 0.0 0.00 0.00 0.00 84 1009.5
20260905022524 66 0 0.0 0.0 0.00 0.00 0.00 83 1009.5
20260905022003 66 0 0.0 0.0 0.00 0.00 0.00 83 1009.4
20260905021503 66 0 0.0 0.0 0.00 0.00 0.00 83 1009.5
20260905021024 66 0 0.0 0.0 0.00 0.00 0.00 82 1009.6
20260905020503 66 0 0.0 0.0 0.00 0.00 0.00 82 1009.6
20260905020003 67 0 0.0 0.0 0.00 0.00 0.00 82 1009.7
20260905015503 67 0 0.0 0.0 0.00 0.00 0.00 81 1009.6
20260905015004 67 0 0.0 0.0 0.00 0.00 0.00 80 1009.6
20260905014524 67 0 0.0 0.0 0.00 0.00 0.00 80 1009.6
20260905014003 67 0 0.0 0.0 0.00 0.00 0.00 81 1009.6
20260905013503 67 0 0.0 0.0 0.00 0.00 0.00 80 1009.6
20260905013024 68 0 0.0 0.0 0.00 0.00 0.00 79 1009.6
20260905012503 68 0 0.0 0.0 0.00 0.00 0.00 79 1009.7
20260905012024 68 0 0.0 0.0 0.00 0.00 0.00 78 1009.7
20260905011503 68 0 0.0 0.0 0.00 0.00 0.00 78 1009.6
20260905011003 68 0 0.0 0.0 0.00 0.00 0.00 78 1009.7
20260905010503 68 0 0.0 0.0 0.00 0.00 0.00 78 1009.6
20260905010003 68 0 0.0 0.0 0.00 0.00 0.00 78 1009.5
20260905005504 69 0 0.0 0.0 0.00 0.00 0.00 78 1009.6
20260905005024 69 0 0.0 0.0 0.00 0.00 0.00 77 1009.7
20260905004504 69 0 0.0 0.0 0.00 0.00 0.00 77 1009.6
20260905004004 69 0 0.0 0.0 0.00 0.00 0.00 77 1009.5
20260905003524 69 0 0.0 0.0 0.00 0.00 0.00 77 1009.5
20260905003004 69 0 0.0 0.0 0.00 0.00 0.00 77 1009.6
20260905002503 69 0 0.0 0.0 0.00 0.00 0.00 77 1009.7
20260905002024 69 0 0.0 0.0 0.00 0.00 0.00 77 1009.6
20260905001525 70 0 0.0 0.0 0.00 0.00 0.00 76 1009.4
20260905001004 70 0 0.0 0.0 0.00 0.00 0.00 76 1009.4
20260905000504 70 0 0.0 0.0 0.00 0.00 0.00 76 1009.4
20260905000025 71 0 0.0 0.0 0.00 0.00 0.00 75 1009.4
20260904235525 71 0 0.0 0.0 0.00 0.00 0.00 74 1009.4
20260904235004 71 0 0.0 0.0 0.00 0.00 0.00 74 1009.4
20260904234504 72 0 0.0 0.0 0.00 0.00 0.00 73 1009.3
20260904234025 72 0 0.0 0.0 0.00 0.00 0.00 72 1009.2
20260904233504 73 0 0.0 0.0 0.00 0.00 0.00 71 1009.0
20260904233004 73 0 0.0 0.0 0.00 0.00 0.00 70 1009.1
20260904232525 74 0 0.0 0.0 0.00 0.00 0.00 69 1009.0
20260904232025 74 0 0.0 0.0 0.00 0.00 0.00 68 1008.9
20260904231525 74 0 0.0 0.0 0.00 0.00 0.00 67 1008.8
20260904231004 75 0 0.0 0.0 0.00 0.00 0.00 66 1008.7
20260904230504 76 0 0.0 0.0 0.00 0.00 0.00 66 1008.7
20260904230004 76 0 0.0 0.0 0.00 0.00 0.00 64 1008.7
20260904225504 76 0 0.0 0.0 0.00 0.00 0.00 63 1008.7
20260904225004 76 0 0.0 0.0 0.00 0.00 0.00 63 1008.7
20260904224504 77 0 0.0 0.0 0.00 0.00 0.00 61 1008.8
20260904224004 77 0 0.0 0.0 0.00 0.00 0.00 61 1008.7